Time;durP1;ratioP1;P1;durP2;ratioP2;P2;SDS_P1;SDS_P2;PMS_P1;PMS_P2;Temp;Humidity;BMP_temperature;BMP_pressure;BME280_temperature;BME280_humidity;BME280_pressure;Samples;Min_cycle;Max_cycle;Signal;HPM_P1;HPM_P2
2023/04/05 00:00:56;;;;;;;5.03;1.65;;;1.50;99.90;;;;;;12463715;28;20418;-78
2023/04/05 00:07:01;;;;;;;8.18;1.80;;;1.40;99.90;;;;;;12444076;28;20049;-79
2023/04/05 00:13:03;;;;;;;;;;;1.30;99.90;;;;;;12451371;28;20042;-79
2023/04/05 00:19:05;;;;;;;7.72;2.03;;;1.10;99.90;;;;;;12462963;28;19932;-78
2023/04/05 00:25:08;;;;;;;4.03;1.70;;;1.20;99.90;;;;;;12466211;28;20382;-78
2023/04/05 00:31:11;;;;;;;6.88;1.92;;;1.20;99.90;;;;;;12447797;28;20049;-78
2023/04/05 00:37:12;;;;;;;3.70;1.65;;;1.10;99.90;;;;;;12485561;28;20041;-78
2023/04/05 00:43:15;;;;;;;8.07;1.80;;;1.00;99.90;;;;;;12484024;28;20184;-78
2023/04/05 00:49:17;;;;;;;4.85;2.03;;;0.90;99.90;;;;;;12479198;28;20053;-78
2023/04/05 00:55:19;;;;;;;5.22;2.08;;;1.00;99.90;;;;;;12480756;28;20046;-79
2023/04/05 01:01:25;;;;;;;5.82;2.05;;;0.90;99.90;;;;;;12473816;28;20158;-77
2023/04/05 01:07:57;;;;;;;4.55;1.80;;;1.00;99.90;;;;;;12489207;28;20053;-78
2023/04/05 01:14:00;;;;;;;4.35;2.25;;;1.00;99.90;;;;;;12478322;28;20037;-79
2023/04/05 01:20:12;;;;;;;3.13;1.63;;;0.90;99.90;;;;;;12475038;28;20053;-79
2023/04/05 01:26:26;;;;;;;5.50;1.95;;;0.80;99.90;;;;;;12483499;28;20466;-78
2023/04/05 01:32:28;;;;;;;2.73;1.13;;;0.70;99.90;;;;;;12481607;28;20064;-79
2023/04/05 01:38:32;;;;;;;4.75;2.10;;;0.80;99.90;;;;;;12476577;28;20054;-80
2023/04/05 01:44:34;;;;;;;4.32;1.80;;;0.80;99.90;;;;;;12476337;28;20053;-78
2023/04/05 01:50:36;;;;;;;5.68;2.22;;;0.70;99.90;;;;;;12460778;28;20046;-79
2023/04/05 01:56:38;;;;;;;4.68;1.90;;;0.70;99.90;;;;;;12463810;28;20054;-78
2023/04/05 02:02:40;;;;;;;7.18;2.10;;;0.70;99.90;;;;;;12443540;28;20065;-77
2023/04/05 02:08:42;;;;;;;6.60;2.20;;;0.70;99.90;;;;;;12444139;28;20058;-79
2023/04/05 02:14:44;;;;;;;9.15;2.38;;;0.60;99.90;;;;;;12452712;28;20087;-79
2023/04/05 02:20:47;;;;;;;4.72;1.88;;;0.60;99.90;;;;;;12469323;28;20497;-78
2023/04/05 02:26:50;;;;;;;5.23;1.73;;;0.70;99.90;;;;;;12449391;28;20073;-79
2023/04/05 02:32:52;;;;;;;4.15;2.08;;;0.60;99.90;;;;;;12459182;28;20041;-78
2023/04/05 02:38:54;;;;;;;4.03;2.03;;;0.70;99.90;;;;;;12481654;28;20480;-78
2023/04/05 02:44:56;;;;;;;5.72;2.40;;;0.50;99.90;;;;;;12493678;28;20055;-79
2023/04/05 02:50:58;;;;;;;6.45;2.20;;;0.40;99.90;;;;;;12494952;28;20048;-79
2023/04/05 02:57:01;;;;;;;4.90;1.90;;;0.30;99.90;;;;;;12484659;28;20179;-78
2023/04/05 03:03:03;;;;;;;4.93;2.08;;;0.20;99.90;;;;;;12497629;28;20508;-79
2023/04/05 03:09:06;;;;;;;5.38;1.92;;;0.20;99.90;;;;;;12469713;28;20049;-78
2023/04/05 03:15:08;;;;;;;4.85;2.50;;;0.10;99.90;;;;;;12477726;28;20203;-78
2023/04/05 03:21:10;;;;;;;5.32;2.30;;;0.10;99.90;;;;;;12517247;28;20053;-79
2023/04/05 03:27:13;;;;;;;5.90;2.20;;;0.20;99.90;;;;;;12489007;28;20595;-80
2023/04/05 03:33:16;;;;;;;7.47;2.80;;;0.20;99.90;;;;;;12474123;28;20053;-79
2023/04/05 03:39:18;;;;;;;6.07;2.78;;;0.20;99.90;;;;;;12487119;28;20045;-79
2023/04/05 03:45:20;;;;;;;5.75;2.45;;;0.20;99.90;;;;;;12474524;28;20513;-79
2023/04/05 03:51:26;;;;;;;7.80;2.42;;;0.00;99.90;;;;;;12468771;28;20275;-79
2023/04/05 03:57:28;;;;;;;7.90;2.92;;;0.10;99.90;;;;;;12458598;28;20050;-79
2023/04/05 04:03:30;;;;;;;5.65;2.30;;;-0.10;99.90;;;;;;12468885;28;20088;-79
2023/04/05 04:09:32;;;;;;;6.35;2.58;;;-0.20;99.90;;;;;;12459158;28;20549;-79
2023/04/05 04:15:34;;;;;;;6.95;2.63;;;-0.20;99.90;;;;;;12460751;28;20049;-79
2023/04/05 04:21:38;;;;;;;4.20;2.38;;;-0.30;99.90;;;;;;12466976;28;20053;-79
2023/04/05 04:27:42;;;;;;;6.85;2.47;;;-0.30;99.90;;;;;;12473770;28;20060;-80
2023/04/05 04:33:45;;;;;;;6.77;3.10;;;-0.30;99.90;;;;;;12465271;28;20052;-79
2023/04/05 04:39:48;;;;;;;7.63;2.50;;;-0.30;99.90;;;;;;12482360;28;20076;-79
2023/04/05 04:45:53;;;;;;;7.78;2.95;;;-0.50;99.90;;;;;;12477535;28;20137;-79
2023/04/05 04:51:58;;;;;;;7.05;3.25;;;-0.50;99.90;;;;;;12501754;28;20139;-79
2023/04/05 04:58:00;;;;;;;8.88;2.75;;;-0.50;99.90;;;;;;12489757;28;20049;-79
2023/04/05 05:04:03;;;;;;;6.55;2.60;;;-0.50;99.90;;;;;;12472340;28;20072;-79
2023/04/05 05:10:06;;;;;;;7.32;3.10;;;-0.50;99.90;;;;;;12485987;28;20144;-79
2023/04/05 05:16:08;;;;;;;5.45;3.00;;;-0.50;99.90;;;;;;12448813;28;20045;-79
2023/04/05 05:22:10;;;;;;;7.53;3.17;;;-0.10;99.90;;;;;;12486199;28;20057;-79
2023/04/05 05:28:12;;;;;;;8.75;2.67;;;1.90;99.90;;;;;;12485943;28;20042;-79
2023/04/05 05:34:14;;;;;;;6.40;2.40;;;3.10;99.90;;;;;;12453157;28;20046;-79
2023/04/05 05:40:18;;;;;;;5.65;2.55;;;3.40;99.90;;;;;;12468236;28;20081;-79
2023/04/05 05:46:20;;;;;;;5.43;2.63;;;3.00;99.90;;;;;;12453946;28;20061;-79
2023/04/05 05:52:22;;;;;;;5.55;2.65;;;2.70;99.90;;;;;;12460939;28;20045;-79
2023/04/05 05:58:24;;;;;;;6.15;2.72;;;2.30;99.90;;;;;;12443353;28;20073;-79
2023/04/05 06:04:27;;;;;;;5.75;2.72;;;3.90;99.90;;;;;;12439719;28;20070;-79
2023/04/05 06:10:31;;;;;;;7.68;4.13;;;4.40;99.90;;;;;;12444006;28;20058;-79
2023/04/05 06:16:34;;;;;;;5.03;2.88;;;4.00;99.90;;;;;;12452146;28;20045;-79
2023/04/05 06:22:39;;;;;;;5.78;2.78;;;3.50;99.90;;;;;;12435285;28;20050;-79
2023/04/05 06:28:40;;;;;;;;;;;2.90;99.90;;;;;;12447690;28;20132;-79
2023/04/05 06:34:45;;;;;;;7.32;3.50;;;3.10;99.90;;;;;;12470768;28;19936;-78
2023/04/05 06:40:47;;;;;;;7.57;4.00;;;3.10;99.90;;;;;;12457236;28;20123;-79
2023/04/05 06:46:49;;;;;;;8.88;4.10;;;3.30;99.90;;;;;;12484570;28;20077;-79
2023/04/05 06:52:50;;;;;;;6.50;3.00;;;3.50;99.90;;;;;;12468429;28;20058;-79
2023/04/05 06:58:52;;;;;;;5.15;2.97;;;3.60;99.90;;;;;;12466947;28;20188;-80
2023/04/05 07:04:59;;;;;;;8.95;3.55;;;3.50;99.90;;;;;;12481925;28;20049;-79
2023/04/05 07:11:01;;;;;;;7.22;2.92;;;3.50;99.90;;;;;;12465639;28;20426;-79
2023/04/05 07:17:07;;;;;;;7.50;3.00;;;3.80;99.90;;;;;;12476476;28;20069;-79
2023/04/05 07:23:09;;;;;;;6.25;2.42;;;4.00;99.90;;;;;;12480681;28;20145;-80
2023/04/05 07:29:11;;;;;;;8.32;2.97;;;4.30;99.90;;;;;;12496130;28;20639;-79
2023/04/05 07:35:14;;;;;;;6.80;2.40;;;4.70;99.90;;;;;;12470999;28;20053;-80
2023/04/05 07:41:17;;;;;;;6.65;2.20;;;5.00;99.90;;;;;;12464629;28;20097;-80
2023/04/05 07:47:19;;;;;;;6.97;2.47;;;5.30;99.90;;;;;;12460555;28;20061;-79
2023/04/05 07:53:21;;;;;;;4.32;2.33;;;5.60;99.90;;;;;;12446713;28;20049;-79
2023/04/05 07:59:23;;;;;;;5.55;2.40;;;5.70;99.90;;;;;;12466324;28;20345;-80
2023/04/05 08:05:27;;;;;;;6.05;2.75;;;5.90;99.90;;;;;;12451252;28;20058;-80
2023/04/05 08:11:29;;;;;;;6.10;2.63;;;5.90;99.90;;;;;;12450568;28;20469;-80
2023/04/05 08:17:31;;;;;;;6.97;2.20;;;6.00;99.90;;;;;;12458582;28;20042;-81
2023/04/05 08:23:33;;;;;;;5.88;2.33;;;6.40;99.90;;;;;;12468011;28;20041;-81
2023/04/05 08:29:35;;;;;;;5.28;2.17;;;6.40;99.90;;;;;;12460186;28;20191;-80
2023/04/05 08:35:38;;;;;;;3.78;1.90;;;6.50;99.90;;;;;;12485258;28;20840;-80
2023/04/05 08:41:45;;;;;;;4.15;2.10;;;6.70;99.90;;;;;;12480591;28;20038;-81
2023/04/05 08:47:51;;;;;;;4.53;2.42;;;6.70;99.90;;;;;;12501187;28;20437;-80
2023/04/05 08:53:53;;;;;;;4.40;1.98;;;7.00;99.90;;;;;;12483994;28;20045;-81
2023/04/05 08:59:56;;;;;;;6.05;2.30;;;7.30;99.90;;;;;;12481005;28;20049;-81
2023/04/05 09:05:59;;;;;;;5.32;2.17;;;7.50;99.90;;;;;;12463160;28;20131;-82
2023/04/05 09:12:03;;;;;;;4.00;2.10;;;7.00;99.90;;;;;;12464291;28;20065;-79
2023/04/05 09:18:05;;;;;;;5.50;2.20;;;7.10;99.90;;;;;;12475827;28;20565;-79
2023/04/05 09:24:34;;;;;;;5.18;2.55;;;7.40;99.90;;;;;;12463188;28;20049;-80
2023/04/05 09:30:36;;;;;;;5.13;2.40;;;7.70;99.90;;;;;;12461738;28;20376;-79
2023/04/05 09:36:44;;;;;;;5.85;2.47;;;7.90;99.90;;;;;;12444775;28;21270;-81
2023/04/05 09:42:46;;;;;;;4.43;2.60;;;7.60;99.90;;;;;;12447778;28;20038;-79
2023/04/05 09:48:50;;;;;;;5.30;2.22;;;7.90;99.90;;;;;;12451361;28;20041;-79
2023/04/05 09:54:57;;;;;;;5.33;2.50;;;8.40;99.90;;;;;;12439080;28;20092;-79
2023/04/05 10:00:59;;;;;;;4.28;2.20;;;8.80;99.90;;;;;;12454767;28;20071;-79
2023/04/05 10:07:18;;;;;;;4.97;2.63;;;8.50;99.90;;;;;;12428534;28;20061;-79
2023/04/05 10:13:22;;;;;;;4.90;1.92;;;9.30;99.90;;;;;;12438345;28;20103;-79
2023/04/05 10:19:47;;;;;;;8.07;2.28;;;8.70;99.90;;;;;;12460441;28;20053;-79
2023/04/05 10:25:55;;;;;;;4.68;2.08;;;8.60;99.90;;;;;;12424760;28;20433;-80
2023/04/05 10:32:05;;;;;;;4.35;2.10;;;8.20;99.90;;;;;;12442942;28;20064;-79
2023/04/05 10:38:26;;;;;;;6.10;2.20;;;7.80;99.90;;;;;;12482896;28;20473;-79
2023/04/05 10:44:34;;;;;;;6.10;2.15;;;8.20;99.90;;;;;;12478811;28;20053;-79
2023/04/05 10:50:37;;;;;;;4.45;2.10;;;7.80;99.90;;;;;;12472520;28;20099;-78
2023/04/05 10:56:40;;;;;;;4.40;2.10;;;7.80;99.90;;;;;;12446705;28;20046;-79
2023/04/05 11:02:42;;;;;;;5.00;2.03;;;8.00;99.90;;;;;;12467217;28;20057;-79
2023/04/05 11:08:46;;;;;;;6.55;2.20;;;8.80;99.90;;;;;;12460534;28;20061;-80
2023/04/05 11:14:48;;;;;;;4.07;2.20;;;8.70;99.90;;;;;;12438728;28;20129;-80
2023/04/05 11:21:05;;;;;;;3.70;1.95;;;9.20;99.90;;;;;;12463003;28;20050;-78
2023/04/05 11:27:08;;;;;;;5.80;1.90;;;10.10;99.90;;;;;;12472453;28;20557;-78
2023/04/05 11:33:10;;;;;;;4.03;1.80;;;10.00;99.90;;;;;;12461980;28;20099;-78
2023/04/05 11:39:19;;;;;;;3.53;2.10;;;8.90;99.90;;;;;;12484951;28;20103;-79
2023/04/05 11:45:22;;;;;;;5.65;2.45;;;9.90;99.90;;;;;;12484466;28;20041;-79
2023/04/05 11:51:27;;;;;;;3.97;1.98;;;9.60;99.90;;;;;;12471974;28;20057;-79
2023/04/05 11:57:30;;;;;;;4.32;2.28;;;9.80;99.90;;;;;;12499241;28;20205;-80
2023/04/05 12:03:34;;;;;;;3.38;2.10;;;9.30;99.90;;;;;;12473884;28;20053;-80
2023/04/05 12:09:55;;;;;;;4.60;2.20;;;10.10;99.90;;;;;;12472568;28;20076;-79
2023/04/05 12:16:02;;;;;;;5.88;2.25;;;10.40;99.90;;;;;;12475112;28;20034;-80
2023/04/05 12:22:04;;;;;;;4.22;2.03;;;9.30;99.90;;;;;;12452965;28;20080;-79
2023/04/05 12:28:07;;;;;;;4.60;2.20;;;9.50;99.90;;;;;;12478910;28;20418;-78
2023/04/05 12:34:11;;;;;;;5.07;1.80;;;8.40;99.90;;;;;;12480616;28;20041;-78
2023/04/05 12:40:18;;;;;;;5.20;2.20;;;8.60;99.90;;;;;;12483694;28;20053;-79
2023/04/05 12:46:20;;;;;;;5.32;2.03;;;9.10;99.90;;;;;;12507516;28;20505;-79
2023/04/05 12:52:25;;;;;;;4.82;2.30;;;9.30;99.90;;;;;;12479858;28;20067;-79
2023/04/05 12:58:37;;;;;;;5.82;2.08;;;9.90;99.90;;;;;;12478409;28;20523;-80
2023/04/05 13:04:39;;;;;;;4.57;2.30;;;10.40;99.90;;;;;;12468715;28;20054;-79
2023/04/05 13:10:41;;;;;;;4.80;2.35;;;10.40;99.90;;;;;;12471258;28;20042;-79
2023/04/05 13:16:43;;;;;;;4.72;2.20;;;10.70;99.90;;;;;;12476068;28;20045;-79
2023/04/05 13:22:47;;;;;;;8.05;2.45;;;11.10;99.90;;;;;;12469799;28;20052;-79
2023/04/05 13:28:49;;;;;;;4.43;2.20;;;10.70;99.90;;;;;;12466838;28;20073;-80
2023/04/05 13:34:50;;;;;;;3.60;2.00;;;11.10;99.90;;;;;;12475766;28;20297;-79
2023/04/05 13:40:52;;;;;;;4.35;2.15;;;10.00;99.90;;;;;;12477655;28;20044;-79
2023/04/05 13:46:54;;;;;;;5.32;1.92;;;10.70;99.90;;;;;;12489641;28;20144;-80
2023/04/05 13:52:56;;;;;;;3.55;2.00;;;11.20;99.90;;;;;;12506444;28;20046;-79
2023/04/05 13:58:58;;;;;;;5.00;2.20;;;10.40;99.90;;;;;;12483902;28;20049;-79
2023/04/05 14:05:01;;;;;;;4.25;2.20;;;10.00;99.90;;;;;;12469541;28;20079;-79
2023/04/05 14:11:03;;;;;;;4.32;2.20;;;9.80;99.90;;;;;;12482422;28;20046;-79
2023/04/05 14:17:06;;;;;;;4.95;2.33;;;9.20;99.90;;;;;;12468080;28;20095;-79
2023/04/05 14:23:07;;;;;;;3.78;2.00;;;8.70;99.90;;;;;;12476983;28;20052;-79
2023/04/05 14:29:10;;;;;;;4.53;2.05;;;9.30;99.90;;;;;;12473101;28;20049;-79
2023/04/05 14:35:12;;;;;;;3.70;2.10;;;9.30;99.90;;;;;;12476103;28;20087;-79
2023/04/05 14:41:14;;;;;;;4.25;2.28;;;9.50;99.90;;;;;;12488315;28;20049;-80
2023/04/05 14:47:16;;;;;;;4.95;2.28;;;9.80;99.90;;;;;;12484028;28;20054;-80
2023/04/05 14:53:18;;;;;;;5.30;2.38;;;10.10;99.90;;;;;;12453571;28;20057;-80
2023/04/05 14:59:20;;;;;;;3.90;2.20;;;10.80;99.90;;;;;;12464274;28;20410;-79
2023/04/05 15:05:22;;;;;;;4.57;2.25;;;11.00;99.90;;;;;;12471738;28;20060;-81
2023/04/05 15:11:24;;;;;;;6.57;2.40;;;11.60;99.90;;;;;;12476285;28;20138;-80
2023/04/05 15:17:26;;;;;;;3.75;2.20;;;11.50;99.90;;;;;;12473920;28;20088;-80
2023/04/05 15:23:29;;;;;;;4.65;2.20;;;11.30;99.90;;;;;;12481066;28;20406;-80
2023/04/05 15:29:32;;;;;;;4.17;1.97;;;11.80;99.90;;;;;;12492863;28;20085;-81
2023/04/05 15:35:35;;;;;;;4.45;2.30;;;12.10;99.90;;;;;;12490559;28;20065;-80
2023/04/05 15:41:37;;;;;;;8.60;2.13;;;11.80;99.90;;;;;;12496125;28;20046;-80
2023/04/05 15:47:39;;;;;;;4.72;2.00;;;11.00;99.90;;;;;;12491453;28;20487;-80
2023/04/05 15:53:41;;;;;;;5.30;2.30;;;10.10;99.90;;;;;;12478374;28;20136;-79
2023/04/05 15:59:43;;;;;;;5.65;2.33;;;10.10;99.90;;;;;;12493266;28;20129;-79
2023/04/05 16:05:45;;;;;;;5.10;2.40;;;10.20;99.90;;;;;;12497103;28;20049;-80
2023/04/05 16:11:47;;;;;;;5.18;2.10;;;11.10;99.90;;;;;;12499263;28;20045;-80
2023/04/05 16:17:49;;;;;;;4.75;2.30;;;10.10;99.90;;;;;;12529636;28;20053;-79
2023/04/05 16:23:51;;;;;;;5.28;2.22;;;10.00;99.90;;;;;;12543381;28;20033;-79
2023/04/05 16:29:53;;;;;;;4.63;2.03;;;10.00;99.90;;;;;;12542810;28;20026;-80
2023/04/05 16:35:55;;;;;;;5.72;2.20;;;10.20;99.90;;;;;;12518276;28;20045;-79
2023/04/05 16:41:58;;;;;;;4.32;2.53;;;10.00;99.90;;;;;;12498350;28;20053;-79
2023/04/05 16:48:01;;;;;;;4.47;2.22;;;10.80;99.90;;;;;;12489083;28;20068;-80
2023/04/05 16:54:03;;;;;;;4.00;2.30;;;10.00;99.90;;;;;;12467037;28;20195;-79
2023/04/05 17:00:06;;;;;;;3.75;2.30;;;9.70;99.90;;;;;;12485078;28;20095;-80
2023/04/05 17:06:09;;;;;;;3.85;2.10;;;9.70;99.90;;;;;;12462112;28;20497;-78
2023/04/05 17:12:11;;;;;;;5.03;2.70;;;10.30;99.90;;;;;;12471663;28;20046;-78
2023/04/05 17:18:13;;;;;;;8.15;2.40;;;9.60;99.90;;;;;;12475499;28;20226;-79
2023/04/05 17:24:18;;;;;;;6.18;2.90;;;9.20;99.90;;;;;;12472679;28;20098;-78
2023/04/05 17:30:20;;;;;;;5.18;2.40;;;8.70;99.90;;;;;;12466070;28;20058;-79
2023/04/05 17:36:22;;;;;;;5.35;2.17;;;8.30;99.90;;;;;;12478646;28;20102;-79
2023/04/05 17:42:24;;;;;;;4.07;1.98;;;8.00;99.90;;;;;;12483663;28;20068;-79
2023/04/05 17:48:28;;;;;;;7.53;2.10;;;7.90;99.90;;;;;;12477009;28;20057;-79
2023/04/05 17:54:32;;;;;;;4.43;2.60;;;7.70;99.90;;;;;;12487427;28;20132;-79
2023/04/05 18:00:34;;;;;;;7.05;2.58;;;7.50;99.90;;;;;;12476044;28;20069;-79
2023/04/05 18:06:36;;;;;;;4.60;2.45;;;7.30;99.90;;;;;;12470706;28;20053;-79
2023/04/05 18:12:39;;;;;;;6.93;2.60;;;7.10;99.90;;;;;;12473267;28;20041;-79
2023/04/05 18:18:41;;;;;;;7.47;2.60;;;7.00;99.90;;;;;;12452832;28;20524;-79
2023/04/05 18:24:44;;;;;;;6.00;2.45;;;6.80;99.90;;;;;;12491709;28;20168;-79
2023/04/05 18:30:49;;;;;;;6.57;2.45;;;6.60;99.90;;;;;;12491176;28;20080;-79
2023/04/05 18:36:51;;;;;;;6.18;2.50;;;6.50;99.90;;;;;;12480350;28;20048;-78
2023/04/05 18:42:53;;;;;;;4.93;2.45;;;6.30;99.90;;;;;;12484690;28;20528;-79
2023/04/05 18:48:55;;;;;;;7.43;2.75;;;6.20;99.90;;;;;;12477788;28;20068;-79
2023/04/05 18:54:57;;;;;;;7.97;2.50;;;6.20;99.90;;;;;;12469072;28;20044;-79
2023/04/05 19:01:03;;;;;;;5.13;2.53;;;6.10;99.90;;;;;;12468337;28;20050;-79
2023/04/05 19:07:05;;;;;;;4.40;2.60;;;5.90;99.90;;;;;;12474762;28;20061;-80
2023/04/05 19:13:07;;;;;;;4.68;2.40;;;5.80;99.90;;;;;;12471258;28;20488;-79
2023/04/05 19:19:09;;;;;;;3.42;2.20;;;5.70;99.90;;;;;;12469938;28;20129;-78
2023/04/05 19:25:11;;;;;;;6.43;2.60;;;5.50;99.90;;;;;;12466335;28;20045;-78
2023/04/05 19:31:13;;;;;;;4.72;2.40;;;5.50;99.90;;;;;;12499145;28;20045;-79
2023/04/05 19:37:16;;;;;;;6.20;2.72;;;5.40;99.90;;;;;;12455326;28;20089;-80
2023/04/05 19:43:18;;;;;;;7.72;3.88;;;5.30;99.90;;;;;;12464084;28;20099;-79
2023/04/05 19:49:31;;;;;;;6.35;2.72;;;5.10;99.90;;;;;;12478415;28;20042;-79
2023/04/05 19:55:37;;;;;;;5.50;2.83;;;5.10;99.90;;;;;;12468204;28;20481;-79
2023/04/05 20:01:40;;;;;;;6.65;2.60;;;5.00;99.90;;;;;;12483182;28;20171;-79
2023/04/05 20:07:42;;;;;;;4.63;2.33;;;4.80;99.90;;;;;;12492331;28;20096;-79
2023/04/05 20:13:48;;;;;;;6.38;2.80;;;4.80;99.90;;;;;;12481270;28;20042;-79
2023/04/05 20:19:56;;;;;;;5.47;2.80;;;4.70;99.90;;;;;;12479198;28;20048;-80
2023/04/05 20:25:58;;;;;;;6.97;3.00;;;4.70;99.90;;;;;;12485863;28;20124;-79
2023/04/05 20:32:00;;;;;;;4.65;2.72;;;4.60;99.90;;;;;;12475500;28;20094;-79
2023/04/05 20:38:02;;;;;;;6.18;2.30;;;4.40;99.90;;;;;;12471608;28;20076;-79
2023/04/05 20:44:04;;;;;;;5.93;2.80;;;4.40;99.90;;;;;;12473448;28;20068;-80
2023/04/05 20:50:06;;;;;;;4.35;2.85;;;4.40;99.90;;;;;;12471098;28;20128;-79
2023/04/05 20:56:09;;;;;;;5.88;2.70;;;4.40;99.90;;;;;;12432254;28;20041;-79
2023/04/05 21:02:11;;;;;;;5.03;2.60;;;4.30;99.90;;;;;;12450377;28;20421;-79
2023/04/05 21:08:15;;;;;;;5.22;3.10;;;4.30;99.90;;;;;;12475995;28;20195;-80
2023/04/05 21:14:17;;;;;;;5.65;3.00;;;4.10;99.90;;;;;;12477598;28;20132;-79
2023/04/05 21:20:18;;;;;;;7.53;3.30;;;3.90;99.90;;;;;;12476225;28;20054;-79
2023/04/05 21:26:20;;;;;;;5.45;3.10;;;3.70;99.90;;;;;;12482762;28;20042;-80
2023/04/05 21:32:22;;;;;;;7.28;3.40;;;3.60;99.90;;;;;;12472766;28;20045;-79
2023/04/05 21:38:24;;;;;;;6.40;3.15;;;3.70;99.90;;;;;;12470041;28;20615;-79
2023/04/05 21:44:26;;;;;;;4.40;3.15;;;3.70;99.90;;;;;;12473782;28;20128;-79
2023/04/05 21:50:28;;;;;;;6.47;3.17;;;3.30;99.90;;;;;;12481770;28;20058;-79
2023/04/05 21:56:30;;;;;;;5.10;3.08;;;3.30;99.90;;;;;;12467639;28;20405;-79
2023/04/05 22:02:32;;;;;;;7.45;3.90;;;3.40;99.90;;;;;;12492602;28;20080;-79
2023/04/05 22:08:34;;;;;;;6.35;3.20;;;3.50;99.90;;;;;;12453399;28;20145;-79
2023/04/05 22:14:36;;;;;;;6.15;3.28;;;3.60;99.90;;;;;;12463618;28;20113;-80
2023/04/05 22:20:38;;;;;;;5.15;3.13;;;3.40;99.90;;;;;;12458333;28;20058;-79
2023/04/05 22:26:40;;;;;;;6.28;3.45;;;3.30;99.90;;;;;;12486881;28;20510;-80
2023/04/05 22:32:42;;;;;;;9.40;3.45;;;3.10;99.90;;;;;;12453042;28;20053;-80
2023/04/05 22:38:44;;;;;;;7.90;3.78;;;3.00;99.90;;;;;;12463385;28;20053;-79
2023/04/05 22:44:46;;;;;;;7.47;3.70;;;2.90;99.90;;;;;;12477271;28;20092;-79
2023/04/05 22:50:48;;;;;;;6.97;3.00;;;2.90;99.90;;;;;;12457305;28;20150;-79
2023/04/05 22:56:50;;;;;;;4.30;2.92;;;2.90;99.90;;;;;;12471806;28;20042;-80
2023/04/05 23:02:52;;;;;;;4.68;3.20;;;2.90;99.90;;;;;;12474910;28;20099;-79
2023/04/05 23:08:54;;;;;;;6.38;3.20;;;2.80;99.90;;;;;;12465113;28;20065;-80
2023/04/05 23:14:57;;;;;;;5.55;3.03;;;2.60;99.90;;;;;;12451085;28;20037;-80
2023/04/05 23:20:58;;;;;;;6.15;3.47;;;2.30;99.90;;;;;;12477488;28;20064;-80
2023/04/05 23:27:00;;;;;;;7.07;3.35;;;2.30;99.90;;;;;;12469594;28;20054;-79
2023/04/05 23:33:02;;;;;;;6.72;3.10;;;2.40;99.90;;;;;;12449543;28;20058;-79
2023/04/05 23:39:04;;;;;;;6.13;2.97;;;2.30;99.90;;;;;;12480021;28;20092;-79
2023/04/05 23:45:07;;;;;;;9.82;3.38;;;2.40;99.90;;;;;;12490663;28;20042;-79
2023/04/05 23:51:11;;;;;;;5.68;3.20;;;2.60;99.90;;;;;;12481804;28;20041;-79
2023/04/05 23:57:13;;;;;;;8.27;3.40;;;2.60;99.90;;;;;;12469384;28;20054;-79
